Portada
METAR-TAF:

METAR-TAF

Aeroports :

Phitsanulok, Tailàndia

latitud: 16-46-23N, longitud: 100-16-56E, altitud: 47 m

Observació

L'informe es va fer fa 1 hora i 3 minuts, a les 10:00 UTC
Vent 3 kt del Oest
Temperatura 34°C
Humitat 30%
Pressió 1009 hPa
Visibilitat: 7000 m

METAR: VTPP 261000Z 27003KT 7000 NSC 34/14 Q1009 NOSIG

Hora: 18:03 (11:03 UTC)

Pronòstic

L'informe es va fer fa 6 hores i 3 minuts, a les 05:00 UTC
Pronòstic vàlid del 26 a les 06 UTC al 27 a les 06 UTC
Vent 5 kt del Sud
Visibilitat: 7000 m
Escasses núvols a una alçada de 2500 ft

TAF: VTPP 260500Z 2606/2706 18005KT 7000 FEW025

Observacions i pronòstics meteorològics de més de 4000 aeroports (METAR i TAF).

Les estacions disponibles són els punts grocs i vermells al mapa.

Posi el ratolí al punt desitjat per veure el nom de l'estació.

Feu clic per veure les observacions i els pronòstics meteorològics.

Per canviar el mapa: feu clic els botons verds amb una creu de color negre per apropar; al botó verd amb un guió per allunyar la imatge; o en les fletxes verdes per a mapes adjacents.


METAR-TAF: